createdAt,value
2022-09-15T00:00:30.842Z,72.53
2022-09-15T00:02:57.806Z,73.71
2022-09-15T00:05:24.710Z,74.08
2022-09-15T00:07:51.712Z,75.00
2022-09-15T00:10:19.090Z,73.95
2022-09-15T00:12:46.122Z,73.76
2022-09-15T00:15:15.203Z,74.72
2022-09-15T00:17:42.974Z,75.79
2022-09-15T00:20:10.859Z,75.59
2022-09-15T00:22:38.281Z,75.53
2022-09-15T00:25:06.216Z,75.16
2022-09-15T00:27:34.016Z,75.09
2022-09-15T00:30:01.294Z,77.08
2022-09-15T00:32:29.930Z,76.26
2022-09-15T00:34:56.907Z,75.63
2022-09-15T00:37:23.925Z,75.78
2022-09-15T00:39:50.943Z,76.79
2022-09-15T00:42:20.363Z,76.86
2022-09-15T00:44:49.540Z,78.18
2022-09-15T00:47:19.654Z,77.18
2022-09-15T00:49:53.919Z,77.49
2022-09-15T00:52:32.482Z,77.20
2022-09-15T00:55:16.129Z,77.62
2022-09-15T00:57:55.857Z,77.52
2022-09-15T01:00:25.890Z,78.29
2022-09-15T01:02:53.374Z,78.44
2022-09-15T01:05:23.870Z,77.86
2022-09-15T01:08:01.952Z,78.03
2022-09-15T01:10:35.291Z,77.69
2022-09-15T01:13:06.918Z,78.11
2022-09-15T01:15:48.680Z,78.26
2022-09-15T01:18:23.495Z,78.25
2022-09-15T01:21:21.283Z,78.33
2022-09-15T01:24:06.286Z,79.25
2022-09-15T01:26:46.122Z,79.09
2022-09-15T01:29:21.922Z,79.78
2022-09-15T01:32:19.086Z,78.96
2022-09-15T01:34:55.568Z,78.27
2022-09-15T01:37:29.735Z,78.73
2022-09-15T01:39:59.677Z,78.43
2022-09-15T01:42:30.489Z,77.29
2022-09-15T01:45:07.210Z,76.75
2022-09-15T01:47:35.851Z,76.17
2022-09-15T01:50:22.874Z,76.26
2022-09-15T01:52:53.098Z,75.93
2022-09-15T01:55:29.735Z,76.00
2022-09-15T01:57:58.176Z,77.45
2022-09-15T02:00:25.064Z,74.61
2022-09-15T02:03:05.174Z,76.76
2022-09-15T02:05:41.511Z,77.30
2022-09-15T02:08:25.566Z,75.43
2022-09-15T02:11:06.046Z,76.41
2022-09-15T02:13:39.309Z,77.38
2022-09-15T02:16:20.286Z,76.45
2022-09-15T02:19:04.544Z,77.86
2022-09-15T02:21:40.708Z,78.47
2022-09-15T02:24:20.070Z,76.98
2022-09-15T02:26:50.247Z,76.76
2022-09-15T02:29:20.942Z,78.08
2022-09-15T02:31:50.865Z,79.24
2022-09-15T02:34:26.154Z,77.39
2022-09-15T02:36:54.689Z,79.83
2022-09-15T02:39:26.321Z,76.68
2022-09-15T02:41:53.455Z,77.52
2022-09-15T02:44:20.285Z,76.25
2022-09-15T02:46:47.172Z,74.52
2022-09-15T02:49:14.416Z,75.81
2022-09-15T02:51:41.210Z,75.58
2022-09-15T02:54:08.442Z,74.67
2022-09-15T02:56:35.345Z,76.39
2022-09-15T02:59:02.155Z,77.50
2022-09-15T03:01:32.382Z,76.91
2022-09-15T03:03:59.400Z,77.14
2022-09-15T03:06:28.089Z,76.03
2022-09-15T03:08:57.549Z,77.51
2022-09-15T03:11:27.035Z,76.83
2022-09-15T03:13:56.398Z,79.64
2022-09-15T03:16:24.206Z,79.71
2022-09-15T03:18:52.391Z,78.48
2022-09-15T03:21:19.628Z,77.80
2022-09-15T03:23:46.553Z,77.99
2022-09-15T03:26:13.545Z,79.68
2022-09-15T03:28:40.786Z,81.96
2022-09-15T03:31:08.963Z,78.71
2022-09-15T03:33:37.045Z,80.01
2022-09-15T03:36:04.100Z,80.06
2022-09-15T03:38:31.165Z,79.66
2022-09-15T03:41:01.727Z,79.36
2022-09-15T03:43:30.484Z,80.76
2022-09-15T03:45:57.935Z,80.94
2022-09-15T03:48:25.800Z,81.18
2022-09-15T03:50:52.769Z,81.95
2022-09-15T03:53:20.358Z,83.00
2022-09-15T03:55:49.140Z,81.16
2022-09-15T03:58:17.550Z,80.87
2022-09-15T04:00:45.943Z,82.91
2022-09-15T04:03:13.512Z,82.94
2022-09-15T04:05:40.885Z,82.50
2022-09-15T04:08:12.186Z,82.25
2022-09-15T04:10:40.352Z,82.33
2022-09-15T04:13:07.577Z,83.69
2022-09-15T04:15:34.843Z,83.10
2022-09-15T04:18:01.708Z,83.56
2022-09-15T04:20:28.573Z,83.32
2022-09-15T04:22:55.431Z,80.00
2022-09-15T04:25:22.248Z,79.69
2022-09-15T04:27:49.199Z,79.87
2022-09-15T04:30:16.077Z,80.70
2022-09-15T04:32:42.905Z,79.75
2022-09-15T04:35:10.278Z,80.62
2022-09-15T04:37:37.104Z,81.82
2022-09-15T04:40:04.284Z,83.45
2022-09-15T04:42:31.655Z,82.90
2022-09-15T04:44:58.522Z,81.69
2022-09-15T04:47:25.354Z,81.97
2022-09-15T04:49:52.218Z,83.47
2022-09-15T04:52:19.242Z,83.65
2022-09-15T04:54:46.093Z,81.80
2022-09-15T04:57:13.039Z,81.64
2022-09-15T04:59:39.968Z,80.58
2022-09-15T05:02:06.919Z,82.62
2022-09-15T05:04:35.090Z,80.27
2022-09-15T05:07:02.415Z,81.47
2022-09-15T05:09:31.082Z,81.15
2022-09-15T05:11:58.046Z,81.91
2022-09-15T05:14:24.905Z,80.44
2022-09-15T05:16:51.727Z,79.00
2022-09-15T05:19:18.610Z,78.76
2022-09-15T05:21:45.537Z,78.25
2022-09-15T05:24:14.113Z,79.29
2022-09-15T05:26:41.845Z,75.90
2022-09-15T05:29:08.869Z,76.63
2022-09-15T05:31:35.913Z,77.52
2022-09-15T05:34:05.789Z,77.43
2022-09-15T05:36:32.955Z,75.86
2022-09-15T05:39:00.398Z,73.37
2022-09-15T05:41:28.608Z,72.54
2022-09-15T05:43:57.362Z,70.30
2022-09-15T05:46:26.339Z,70.52
2022-09-15T05:48:56.636Z,67.89
2022-09-15T05:51:24.339Z,67.81
2022-09-15T05:53:51.360Z,65.90
2022-09-15T05:56:18.559Z,67.15
2022-09-15T05:58:47.758Z,67.41
2022-09-15T06:01:20.322Z,67.53
2022-09-15T06:03:48.467Z,67.30
2022-09-15T06:06:16.170Z,65.22
2022-09-15T06:08:48.264Z,64.85
2022-09-15T06:11:20.593Z,63.29
2022-09-15T06:13:48.561Z,62.75
2022-09-15T06:16:21.076Z,60.66
2022-09-15T06:18:50.102Z,61.89
2022-09-15T06:21:28.457Z,62.63
2022-09-15T06:23:57.180Z,62.12
2022-09-15T06:26:24.769Z,61.16
2022-09-15T06:28:56.777Z,61.97
2022-09-15T06:31:25.430Z,61.98
2022-09-15T06:33:54.476Z,59.41
2022-09-15T06:36:24.496Z,59.32
2022-09-15T06:38:51.926Z,59.54
2022-09-15T06:41:19.181Z,58.29
2022-09-15T06:43:46.864Z,58.41
2022-09-15T06:46:18.667Z,57.56
2022-09-15T06:48:48.316Z,59.06
2022-09-15T06:51:17.514Z,57.38
2022-09-15T06:53:45.537Z,56.94
2022-09-15T06:56:21.016Z,56.53
2022-09-15T06:58:51.250Z,57.11
2022-09-15T07:01:23.840Z,54.08
2022-09-15T07:03:51.219Z,53.52
2022-09-15T07:06:18.814Z,53.21
2022-09-15T07:08:46.802Z,53.71
2022-09-15T07:11:14.621Z,53.38
2022-09-15T07:13:41.907Z,53.23
2022-09-15T07:16:10.671Z,54.11
2022-09-15T07:18:42.828Z,52.73
2022-09-15T07:21:18.563Z,53.21
2022-09-15T07:23:46.380Z,53.20
2022-09-15T07:26:14.549Z,51.76
2022-09-15T07:28:43.996Z,51.89
2022-09-15T07:31:13.999Z,51.55
2022-09-15T07:33:41.031Z,52.01
2022-09-15T07:36:09.174Z,51.07
2022-09-15T07:38:39.815Z,49.01
2022-09-15T07:41:09.300Z,48.61
2022-09-15T07:43:36.589Z,48.07
2022-09-15T07:46:04.316Z,46.77
2022-09-15T07:48:32.088Z,46.83
2022-09-15T07:51:01.977Z,45.83
2022-09-15T07:53:30.517Z,46.05
2022-09-15T07:55:58.717Z,46.30
2022-09-15T07:58:26.985Z,47.08
2022-09-15T08:00:54.067Z,45.56
2022-09-15T08:03:21.230Z,46.40
2022-09-15T08:05:48.074Z,45.86
2022-09-15T08:08:14.955Z,44.87
2022-09-15T08:10:42.044Z,44.22
2022-09-15T08:13:08.971Z,43.99
2022-09-15T08:15:37.714Z,43.80
2022-09-15T08:18:05.426Z,43.38
2022-09-15T08:20:32.755Z,43.35
2022-09-15T08:22:59.719Z,42.18
2022-09-15T08:25:26.744Z,43.16
2022-09-15T08:27:54.735Z,42.58
2022-09-15T08:30:22.060Z,41.90
2022-09-15T08:32:49.755Z,41.68
2022-09-15T08:35:17.449Z,41.55
2022-09-15T08:37:44.562Z,40.49
2022-09-15T08:40:22.435Z,40.99
2022-09-15T08:42:52.976Z,40.37
2022-09-15T08:45:30.678Z,38.70
2022-09-15T08:48:01.581Z,38.95
2022-09-15T08:50:35.710Z,39.41
2022-09-15T08:53:13.149Z,38.71
2022-09-15T08:55:45.254Z,37.77
2022-09-15T08:58:16.805Z,37.82
2022-09-15T09:00:48.761Z,38.39
2022-09-15T09:03:24.303Z,37.28
2022-09-15T09:06:12.026Z,37.71
2022-09-15T09:09:25.969Z,37.48
2022-09-15T09:12:03.396Z,37.79
2022-09-15T09:14:42.045Z,37.35
2022-09-15T09:17:31.046Z,37.52
2022-09-15T09:20:03.876Z,37.27
2022-09-15T09:22:43.051Z,36.07
2022-09-15T09:25:27.930Z,35.70
2022-09-15T09:28:06.776Z,35.87
2022-09-15T09:30:48.830Z,34.98
2022-09-15T09:33:24.782Z,35.64
2022-09-15T09:35:53.189Z,35.23
2022-09-15T09:38:29.121Z,35.65
2022-09-15T09:40:59.965Z,35.33
2022-09-15T09:43:31.211Z,34.84
2022-09-15T09:45:58.258Z,34.85
2022-09-15T09:48:27.792Z,34.13
2022-09-15T09:50:55.452Z,33.93
2022-09-15T09:53:33.408Z,34.47
2022-09-15T09:56:12.591Z,34.24
2022-09-15T09:58:39.535Z,33.79
2022-09-15T10:01:15.302Z,33.87
2022-09-15T10:03:43.509Z,34.22
2022-09-15T10:06:18.831Z,33.55
2022-09-15T10:08:56.535Z,33.99
2022-09-15T10:11:40.824Z,33.13
2022-09-15T10:14:21.226Z,33.97
2022-09-15T10:17:11.056Z,33.22
2022-09-15T10:19:45.163Z,31.77
2022-09-15T10:22:33.194Z,32.61
2022-09-15T10:25:02.242Z,31.63
2022-09-15T10:27:35.143Z,31.11
2022-09-15T10:30:14.707Z,31.31
2022-09-15T10:32:42.930Z,30.76
2022-09-15T10:35:11.644Z,28.98
2022-09-15T10:37:51.167Z,28.74
2022-09-15T10:40:44.904Z,28.91
2022-09-15T10:43:49.207Z,26.77
2022-09-15T10:46:24.094Z,25.86
2022-09-15T10:49:00.090Z,25.91
2022-09-15T10:51:55.038Z,25.88
2022-09-15T10:55:09.203Z,25.94
2022-09-15T10:58:06.499Z,25.51
2022-09-15T11:00:45.974Z,25.21
2022-09-15T11:03:31.092Z,25.27
2022-09-15T11:06:25.951Z,25.39
2022-09-15T11:09:04.919Z,26.26
2022-09-15T11:11:39.489Z,26.23
2022-09-15T11:14:17.526Z,25.95
2022-09-15T11:16:44.898Z,27.60
2022-09-15T11:19:26.626Z,26.17
2022-09-15T11:22:02.055Z,27.17
2022-09-15T11:24:50.906Z,26.60
2022-09-15T11:27:26.943Z,27.50
2022-09-15T11:29:53.883Z,26.78
2022-09-15T11:32:45.093Z,26.57
2022-09-15T11:35:37.480Z,25.58
2022-09-15T11:38:29.304Z,25.68
2022-09-15T11:41:17.310Z,26.26
2022-09-15T11:44:07.565Z,25.34
2022-09-15T11:46:57.642Z,25.56
2022-09-15T11:49:31.537Z,24.59
2022-09-15T11:52:46.172Z,24.63
2022-09-15T11:55:39.663Z,25.41
2022-09-15T11:58:09.990Z,23.80
2022-09-15T12:00:48.846Z,25.17
2022-09-15T12:03:27.411Z,25.14
2022-09-15T12:06:03.617Z,25.02
2022-09-15T12:08:40.289Z,24.52
2022-09-15T12:11:19.878Z,24.35
2022-09-15T12:13:47.278Z,25.57
2022-09-15T12:16:16.303Z,25.64
2022-09-15T12:18:47.515Z,24.81
2022-09-15T12:21:36.046Z,24.67
2022-09-15T12:24:10.037Z,24.76
2022-09-15T12:26:46.867Z,25.32
2022-09-15T12:29:22.769Z,24.76
2022-09-15T12:32:29.937Z,24.87
2022-09-15T12:35:07.939Z,25.00
2022-09-15T12:37:43.221Z,25.02
2022-09-15T12:40:34.715Z,24.71
2022-09-15T12:43:19.870Z,24.42
2022-09-15T12:45:59.908Z,24.65
2022-09-15T12:48:35.874Z,24.33
2022-09-15T12:51:05.972Z,24.22
2022-09-15T12:53:37.990Z,24.09
2022-09-15T12:56:10.541Z,23.68
2022-09-15T12:58:49.495Z,24.00
2022-09-15T13:01:19.511Z,24.33
2022-09-15T13:03:46.692Z,23.61
2022-09-15T13:06:26.805Z,24.30
2022-09-15T13:09:01.322Z,23.91
2022-09-15T13:11:37.520Z,24.02
2022-09-15T13:14:04.590Z,24.13
2022-09-15T13:16:33.876Z,24.06
2022-09-15T13:19:29.566Z,24.13
2022-09-15T13:22:11.640Z,24.03
2022-09-15T13:25:15.720Z,23.95
2022-09-15T13:27:44.024Z,23.64
2022-09-15T13:30:26.118Z,23.38
2022-09-15T13:32:59.124Z,23.13
2022-09-15T13:35:51.961Z,23.43
2022-09-15T13:38:29.265Z,23.68
2022-09-15T13:40:58.570Z,23.57
2022-09-15T13:43:56.516Z,22.85
2022-09-15T13:46:41.679Z,23.03
2022-09-15T13:49:27.856Z,23.37
2022-09-15T13:52:08.341Z,23.63
2022-09-15T13:54:35.435Z,23.27
2022-09-15T13:57:02.847Z,23.02
2022-09-15T13:59:32.825Z,23.25
2022-09-15T14:02:00.959Z,23.26
2022-09-15T14:04:32.208Z,23.67
2022-09-15T14:07:01.740Z,23.55
2022-09-15T14:09:34.866Z,23.85
2022-09-15T14:12:07.681Z,23.88
2022-09-15T14:14:42.839Z,23.32
2022-09-15T14:17:30.343Z,22.86
2022-09-15T14:19:59.914Z,23.52
2022-09-15T14:22:31.588Z,22.20
2022-09-15T14:25:00.534Z,21.87
2022-09-15T14:27:30.189Z,21.87
2022-09-15T14:30:01.361Z,22.03
2022-09-15T14:32:31.695Z,21.68
2022-09-15T14:35:00.987Z,21.40
2022-09-15T14:37:32.250Z,21.65
2022-09-15T14:40:02.198Z,21.58
2022-09-15T14:42:41.573Z,22.23
2022-09-15T14:48:02.006Z,22.25
2022-09-15T14:50:33.202Z,22.68
2022-09-15T14:53:20.488Z,22.06
2022-09-15T14:56:07.072Z,22.30
2022-09-15T14:58:42.664Z,22.30
2022-09-15T15:01:17.410Z,22.26
2022-09-15T15:04:01.613Z,22.45
2022-09-15T15:06:41.815Z,22.30
2022-09-15T15:09:14.682Z,21.91
2022-09-15T15:11:42.268Z,22.06
2022-09-15T15:14:12.154Z,22.21
2022-09-15T15:16:52.416Z,22.20
2022-09-15T15:19:32.042Z,22.90
2022-09-15T15:22:20.135Z,23.47
2022-09-15T15:24:52.711Z,22.91
2022-09-15T15:27:34.908Z,23.72
2022-09-15T15:30:33.159Z,24.55
2022-09-15T15:33:04.673Z,24.23
2022-09-15T15:35:33.225Z,24.86
2022-09-15T15:38:08.095Z,24.77
2022-09-15T15:40:37.606Z,25.14
2022-09-15T15:43:08.062Z,26.46
2022-09-15T15:45:36.426Z,25.42
2022-09-15T15:48:04.528Z,25.46
2022-09-15T15:50:32.836Z,25.57
2022-09-15T15:53:00.924Z,25.90
2022-09-15T15:55:39.141Z,26.23
2022-09-15T15:58:06.782Z,26.48
2022-09-15T16:00:45.744Z,26.84
2022-09-15T16:03:13.963Z,27.17
2022-09-15T16:05:47.187Z,27.49
2022-09-15T16:08:27.269Z,27.63
2022-09-15T16:10:55.494Z,27.34
2022-09-15T16:13:23.809Z,27.26
2022-09-15T16:15:51.105Z,27.15
2022-09-15T16:18:18.215Z,27.06
2022-09-15T16:20:45.256Z,28.62
2022-09-15T16:23:15.316Z,28.18
2022-09-15T16:25:49.908Z,27.77
2022-09-15T16:28:17.578Z,30.77
2022-09-15T16:30:44.961Z,30.22
2022-09-15T16:33:16.290Z,28.42
2022-09-15T16:35:51.919Z,30.30
2022-09-15T16:38:20.359Z,28.94
2022-09-15T16:40:51.357Z,30.71
2022-09-15T16:43:23.715Z,29.34
2022-09-15T16:45:51.655Z,29.81
2022-09-15T16:48:19.182Z,29.60
2022-09-15T16:51:02.447Z,29.90
2022-09-15T16:53:34.115Z,30.17
2022-09-15T16:56:01.174Z,31.92
2022-09-15T16:58:28.615Z,31.16
2022-09-15T17:00:56.801Z,31.58
2022-09-15T17:03:25.729Z,32.46
2022-09-15T17:05:57.868Z,31.96
2022-09-15T17:08:29.570Z,32.48
2022-09-15T17:10:58.422Z,35.16
2022-09-15T17:13:29.532Z,34.09
2022-09-15T17:15:58.358Z,33.96
2022-09-15T17:18:25.996Z,33.95
2022-09-15T17:20:53.238Z,34.24
2022-09-15T17:23:24.222Z,35.16
2022-09-15T17:25:53.551Z,33.43
2022-09-15T17:28:23.453Z,34.75
2022-09-15T17:30:53.349Z,34.92
2022-09-15T17:33:21.199Z,36.37
2022-09-15T17:35:49.353Z,35.54
2022-09-15T17:38:20.262Z,36.27
2022-09-15T17:40:48.581Z,36.53
2022-09-15T17:43:20.977Z,36.37
2022-09-15T17:45:49.184Z,37.00
2022-09-15T17:48:16.475Z,36.25
2022-09-15T17:50:45.340Z,37.71
2022-09-15T17:53:15.148Z,38.48
2022-09-15T17:55:45.947Z,37.94
2022-09-15T17:58:13.189Z,37.31
2022-09-15T18:00:42.649Z,38.67
2022-09-15T18:03:35.130Z,37.39
2022-09-15T18:06:05.370Z,35.99
2022-09-15T18:08:36.346Z,37.97
2022-09-15T18:11:05.662Z,40.27
2022-09-15T18:13:33.678Z,41.77
2022-09-15T18:16:10.384Z,41.53
2022-09-15T18:18:38.153Z,40.08
2022-09-15T18:21:09.870Z,43.02
2022-09-15T18:23:37.683Z,42.29
2022-09-15T18:26:04.610Z,40.13
2022-09-15T18:28:31.513Z,40.83
2022-09-15T18:30:58.922Z,40.53
2022-09-15T18:33:26.264Z,41.01
2022-09-15T18:35:55.623Z,43.93
2022-09-15T18:38:23.065Z,40.42
2022-09-15T18:40:53.563Z,41.77
2022-09-15T18:43:22.087Z,43.02
2022-09-15T18:45:49.819Z,44.15
2022-09-15T18:48:17.027Z,42.14
2022-09-15T18:50:45.940Z,42.09
2022-09-15T18:53:13.419Z,43.29
2022-09-15T18:55:42.083Z,42.88
2022-09-15T18:58:09.157Z,42.98
2022-09-15T19:00:36.144Z,44.34
2022-09-15T19:03:05.672Z,44.59
2022-09-15T19:05:33.152Z,44.54
2022-09-15T19:08:00.641Z,45.45
2022-09-15T19:10:27.592Z,44.50
2022-09-15T19:12:54.735Z,45.58
2022-09-15T19:15:25.052Z,44.87
2022-09-15T19:17:52.002Z,47.93
2022-09-15T19:20:19.161Z,48.07
2022-09-15T19:22:46.519Z,45.21
2022-09-15T19:25:14.001Z,46.68
2022-09-15T19:27:41.473Z,48.48
2022-09-15T19:30:10.241Z,47.31
2022-09-15T19:32:38.458Z,46.23
2022-09-15T19:35:06.398Z,46.49
2022-09-15T19:37:37.546Z,45.76
2022-09-15T19:40:10.105Z,43.18
2022-09-15T19:42:38.840Z,42.36
2022-09-15T19:45:06.867Z,42.42
2022-09-15T19:47:34.336Z,41.75
2022-09-15T19:50:01.382Z,41.39
2022-09-15T19:52:28.587Z,40.93
2022-09-15T19:54:55.479Z,40.24
2022-09-15T19:57:22.739Z,41.13
2022-09-15T19:59:50.174Z,40.16
2022-09-15T20:02:17.754Z,40.00
2022-09-15T20:04:44.955Z,40.57
2022-09-15T20:07:12.764Z,41.55
2022-09-15T20:09:39.620Z,41.29
2022-09-15T20:12:06.820Z,41.54
2022-09-15T20:14:33.840Z,40.05
2022-09-15T20:17:01.430Z,43.57
2022-09-15T20:19:29.494Z,42.58
2022-09-15T20:21:56.506Z,44.88
2022-09-15T20:24:24.345Z,44.20
2022-09-15T20:26:51.764Z,44.27
2022-09-15T20:29:19.303Z,45.23
2022-09-15T20:31:46.589Z,45.08
2022-09-15T20:34:13.654Z,45.03
2022-09-15T20:36:40.850Z,44.59
2022-09-15T20:39:13.191Z,45.13
2022-09-15T20:41:41.712Z,45.40
2022-09-15T20:44:12.026Z,44.75
2022-09-15T20:46:39.073Z,45.68
2022-09-15T20:49:06.929Z,45.62
2022-09-15T20:51:34.046Z,45.61
2022-09-15T20:54:03.834Z,44.99
2022-09-15T20:56:32.386Z,44.75
2022-09-15T20:59:00.124Z,44.66
2022-09-15T21:01:35.390Z,44.63
2022-09-15T21:04:02.579Z,45.00
2022-09-15T21:06:29.821Z,45.63
2022-09-15T21:08:57.864Z,46.16
2022-09-15T21:11:30.225Z,46.05
2022-09-15T21:13:57.584Z,46.51
2022-09-15T21:16:27.613Z,46.05
2022-09-15T21:18:56.450Z,45.55
2022-09-15T21:21:24.353Z,46.00
2022-09-15T21:23:56.829Z,46.23
2022-09-15T21:26:31.695Z,46.67
2022-09-15T21:28:58.625Z,46.34
2022-09-15T21:31:28.224Z,47.83
2022-09-15T21:33:56.810Z,46.85
2022-09-15T21:36:26.370Z,46.40
2022-09-15T21:38:55.162Z,47.35
2022-09-15T21:41:24.282Z,46.56
2022-09-15T21:43:55.738Z,47.13
2022-09-15T21:46:28.841Z,47.51
2022-09-15T21:48:57.776Z,46.98
2022-09-15T21:51:26.577Z,47.95
2022-09-15T21:53:54.378Z,48.49
2022-09-15T21:56:22.069Z,47.11
2022-09-15T21:58:49.203Z,47.64
2022-09-15T22:01:25.879Z,47.81
2022-09-15T22:03:58.842Z,47.64
2022-09-15T22:06:32.146Z,47.81
2022-09-15T22:09:05.773Z,47.92
2022-09-15T22:11:33.153Z,47.73
2022-09-15T22:14:03.057Z,48.39
2022-09-15T22:16:30.447Z,48.25
2022-09-15T22:18:57.693Z,48.46
2022-09-15T22:21:27.509Z,48.93
2022-09-15T22:23:56.781Z,49.41
2022-09-15T22:26:32.539Z,49.25
2022-09-15T22:29:00.306Z,49.91
2022-09-15T22:31:28.645Z,49.92
2022-09-15T22:33:55.686Z,50.08
2022-09-15T22:36:28.913Z,50.40
2022-09-15T22:39:03.020Z,50.82
2022-09-15T22:41:31.419Z,49.99
2022-09-15T22:43:58.384Z,51.15
2022-09-15T22:46:25.476Z,50.64
2022-09-15T22:48:52.344Z,51.32
2022-09-15T22:51:19.283Z,50.88
2022-09-15T22:53:46.188Z,50.21
2022-09-15T22:56:14.747Z,49.91
2022-09-15T22:58:46.695Z,50.66
2022-09-15T23:01:17.003Z,50.38
2022-09-15T23:03:47.635Z,50.56
2022-09-15T23:06:14.808Z,50.82
2022-09-15T23:08:41.775Z,51.38
2022-09-15T23:11:13.907Z,52.07
2022-09-15T23:13:41.667Z,51.88
2022-09-15T23:16:09.308Z,51.53
2022-09-15T23:18:36.811Z,51.91
2022-09-15T23:21:09.104Z,51.69
2022-09-15T23:23:38.409Z,52.05
2022-09-15T23:26:10.275Z,52.03
2022-09-15T23:28:39.219Z,52.07
2022-09-15T23:31:06.952Z,52.81
2022-09-15T23:33:34.027Z,51.66
2022-09-15T23:36:03.706Z,52.13
2022-09-15T23:38:34.673Z,52.32
2022-09-15T23:41:01.932Z,52.68
2022-09-15T23:43:28.730Z,53.14
2022-09-15T23:45:55.567Z,52.91
2022-09-15T23:48:23.503Z,54.45
2022-09-15T23:50:50.629Z,54.58
2022-09-15T23:53:18.304Z,53.97
2022-09-15T23:55:46.750Z,54.41
2022-09-15T23:58:13.745Z,54.17
